createdAt,value
2023-05-30T00:01:21.005Z,69.02
2023-05-30T00:03:50.377Z,69.12
2023-05-30T00:06:19.192Z,68.83
2023-05-30T00:08:47.557Z,68.84
2023-05-30T00:11:15.830Z,69.15
2023-05-30T00:13:44.790Z,68.55
2023-05-30T00:16:15.680Z,68.88
2023-05-30T00:18:44.864Z,68.57
2023-05-30T00:21:13.563Z,68.12
2023-05-30T00:23:41.949Z,69.06
2023-05-30T00:26:10.206Z,68.71
2023-05-30T00:28:40.100Z,69.16
2023-05-30T00:31:09.094Z,68.35
2023-05-30T00:33:37.072Z,69.04
2023-05-30T00:36:05.801Z,68.71
2023-05-30T00:38:33.814Z,68.43
2023-05-30T00:41:03.977Z,68.82
2023-05-30T00:43:32.161Z,68.88
2023-05-30T00:46:02.189Z,69.10
2023-05-30T00:48:30.606Z,69.60
2023-05-30T00:50:59.552Z,69.44
2023-05-30T00:53:29.705Z,69.88
2023-05-30T00:56:00.190Z,69.97
2023-05-30T00:58:28.521Z,69.60
2023-05-30T01:00:59.267Z,69.92
2023-05-30T01:03:34.913Z,69.80
2023-05-30T01:06:05.167Z,70.20
2023-05-30T01:08:33.866Z,70.34
2023-05-30T01:11:10.735Z,70.88
2023-05-30T01:13:52.264Z,71.27
2023-05-30T01:16:26.880Z,71.34
2023-05-30T01:19:33.215Z,71.58
2023-05-30T01:22:14.130Z,72.19
2023-05-30T01:24:53.596Z,72.32
2023-05-30T01:27:56.382Z,72.42
2023-05-30T01:30:27.377Z,73.11
2023-05-30T01:32:55.674Z,72.96
2023-05-30T01:35:25.859Z,72.37
2023-05-30T01:37:54.128Z,72.52
2023-05-30T01:40:25.683Z,72.73
2023-05-30T01:43:25.296Z,72.84
2023-05-30T01:46:09.428Z,72.86
2023-05-30T01:48:45.706Z,73.22
2023-05-30T01:51:21.349Z,73.34
2023-05-30T01:53:57.776Z,73.65
2023-05-30T01:56:29.303Z,73.84
2023-05-30T01:58:58.517Z,73.48
2023-05-30T02:01:30.233Z,73.97
2023-05-30T02:03:59.121Z,74.42
2023-05-30T02:06:27.503Z,75.11
2023-05-30T02:08:55.575Z,75.68
2023-05-30T02:11:24.078Z,75.52
2023-05-30T02:13:54.645Z,76.22
2023-05-30T02:16:22.881Z,76.22
2023-05-30T02:18:51.783Z,76.97
2023-05-30T02:21:22.350Z,77.12
2023-05-30T02:23:51.211Z,76.76
2023-05-30T02:26:19.548Z,77.41
2023-05-30T02:28:48.050Z,77.85
2023-05-30T02:31:17.042Z,78.35
2023-05-30T02:33:45.827Z,79.09
2023-05-30T02:36:14.925Z,79.34
2023-05-30T02:38:43.838Z,79.08
2023-05-30T02:41:13.019Z,79.19
2023-05-30T02:43:42.462Z,79.60
2023-05-30T02:46:10.794Z,79.09
2023-05-30T02:48:41.427Z,80.31
2023-05-30T02:51:09.710Z,79.73
2023-05-30T02:53:38.398Z,80.64
2023-05-30T02:56:07.493Z,81.56
2023-05-30T02:59:07.719Z,82.24
2023-05-30T03:01:55.016Z,83.31
2023-05-30T03:04:23.827Z,82.77
2023-05-30T03:06:53.435Z,82.63
2023-05-30T03:09:24.693Z,83.53
2023-05-30T03:11:52.910Z,83.29
2023-05-30T03:14:22.193Z,83.01
2023-05-30T03:16:50.262Z,84.07
2023-05-30T03:19:20.251Z,83.26
2023-05-30T03:21:50.988Z,84.91
2023-05-30T03:24:20.284Z,85.19
2023-05-30T03:26:51.471Z,84.91
2023-05-30T03:29:21.340Z,85.66
2023-05-30T03:31:50.183Z,85.63
2023-05-30T03:34:18.608Z,86.17
2023-05-30T03:36:47.295Z,86.45
2023-05-30T03:39:15.674Z,87.65
2023-05-30T03:41:43.952Z,86.84
2023-05-30T03:44:13.495Z,87.81
2023-05-30T03:46:41.999Z,86.74
2023-05-30T03:49:10.521Z,88.14
2023-05-30T03:51:38.902Z,88.63
2023-05-30T03:54:09.945Z,89.22
2023-05-30T03:56:37.869Z,88.48
2023-05-30T03:59:09.863Z,89.34
2023-05-30T04:01:39.197Z,91.37
2023-05-30T04:04:07.384Z,91.57
2023-05-30T04:06:37.919Z,92.84
2023-05-30T04:09:07.012Z,91.71
2023-05-30T04:11:35.461Z,91.62
2023-05-30T04:14:04.123Z,90.71
2023-05-30T04:16:32.890Z,91.32
2023-05-30T04:19:00.913Z,91.04
2023-05-30T04:21:30.349Z,90.21
2023-05-30T04:23:58.286Z,91.77
2023-05-30T04:26:26.688Z,90.68
2023-05-30T04:28:58.404Z,90.87
2023-05-30T04:31:27.123Z,90.69
2023-05-30T04:33:57.343Z,90.24
2023-05-30T04:36:28.728Z,89.60
2023-05-30T04:38:57.155Z,89.93
2023-05-30T04:41:27.898Z,89.79
2023-05-30T04:43:59.442Z,88.72
2023-05-30T04:46:30.347Z,88.50
2023-05-30T04:49:03.151Z,88.45
2023-05-30T04:51:34.728Z,88.54
2023-05-30T04:54:03.423Z,87.99
2023-05-30T04:56:32.098Z,88.27
2023-05-30T04:59:00.782Z,87.59
2023-05-30T05:01:29.577Z,87.21
2023-05-30T05:03:57.790Z,87.42
2023-05-30T05:06:26.534Z,86.39
2023-05-30T05:08:54.428Z,86.11
2023-05-30T05:11:22.827Z,85.54
2023-05-30T05:13:50.696Z,85.52
2023-05-30T05:16:18.630Z,84.63
2023-05-30T05:18:47.202Z,83.93
2023-05-30T05:21:15.767Z,83.65
2023-05-30T05:23:44.083Z,83.26
2023-05-30T05:26:13.053Z,83.08
2023-05-30T05:28:42.096Z,82.06
2023-05-30T05:31:09.956Z,80.90
2023-05-30T05:33:37.884Z,80.43
2023-05-30T05:36:08.133Z,80.05
2023-05-30T05:38:36.495Z,79.40
2023-05-30T05:41:04.411Z,79.09
2023-05-30T05:43:32.279Z,78.86
2023-05-30T05:46:00.581Z,77.11
2023-05-30T05:48:29.003Z,75.73
2023-05-30T05:50:57.611Z,75.00
2023-05-30T05:53:26.731Z,74.90
2023-05-30T05:55:56.162Z,73.73
2023-05-30T05:58:24.448Z,72.94
2023-05-30T06:00:52.815Z,72.47
2023-05-30T06:03:21.257Z,72.70
2023-05-30T06:05:49.993Z,71.13
2023-05-30T06:08:17.959Z,70.66
2023-05-30T06:10:46.638Z,69.41
2023-05-30T06:13:17.058Z,69.05
2023-05-30T06:15:44.940Z,68.85
2023-05-30T06:18:13.694Z,67.60
2023-05-30T06:20:42.183Z,67.19
2023-05-30T06:23:10.099Z,66.42
2023-05-30T06:25:37.925Z,65.99
2023-05-30T06:28:06.582Z,64.25
2023-05-30T06:30:34.548Z,63.98
2023-05-30T06:33:04.546Z,63.84
2023-05-30T06:35:33.206Z,62.97
2023-05-30T06:38:01.809Z,63.48
2023-05-30T06:40:29.717Z,61.80
2023-05-30T06:42:58.451Z,60.79
2023-05-30T06:45:26.839Z,61.00
2023-05-30T06:47:55.517Z,60.69
2023-05-30T06:50:23.725Z,60.79
2023-05-30T06:52:53.596Z,60.32
2023-05-30T06:55:22.388Z,59.71
2023-05-30T06:57:55.777Z,58.28
2023-05-30T07:00:23.735Z,58.19
2023-05-30T07:02:52.025Z,57.69
2023-05-30T07:05:20.489Z,56.24
2023-05-30T07:07:48.804Z,55.87
2023-05-30T07:10:20.410Z,55.18
2023-05-30T07:12:48.350Z,53.86
2023-05-30T07:15:17.103Z,54.22
2023-05-30T07:17:46.054Z,53.62
2023-05-30T07:20:15.477Z,52.82
2023-05-30T07:22:43.704Z,51.98
2023-05-30T07:25:13.073Z,51.54
2023-05-30T07:27:41.498Z,51.70
2023-05-30T07:30:10.148Z,48.91
2023-05-30T07:32:38.469Z,48.07
2023-05-30T07:35:07.163Z,48.06
2023-05-30T07:37:38.799Z,48.90
2023-05-30T07:40:08.615Z,47.28
2023-05-30T07:42:39.954Z,45.87
2023-05-30T07:45:08.747Z,44.03
2023-05-30T07:47:37.183Z,43.66
2023-05-30T07:50:07.758Z,44.71
2023-05-30T07:52:37.128Z,45.33
2023-05-30T07:55:06.145Z,45.02
2023-05-30T07:57:34.411Z,45.48
2023-05-30T08:00:02.882Z,45.64
2023-05-30T08:02:40.083Z,46.96
2023-05-30T08:05:08.837Z,47.83
2023-05-30T08:07:37.688Z,48.04
2023-05-30T08:10:08.497Z,47.68
2023-05-30T08:12:37.464Z,48.51
2023-05-30T08:15:08.921Z,48.66
2023-05-30T08:17:37.227Z,48.83
2023-05-30T08:20:08.137Z,48.64
2023-05-30T08:22:37.897Z,48.69
2023-05-30T08:25:07.163Z,48.64
2023-05-30T08:27:35.723Z,48.83
2023-05-30T08:30:04.529Z,49.11
2023-05-30T08:32:34.754Z,49.47
2023-05-30T08:35:03.543Z,48.98
2023-05-30T08:37:31.473Z,49.14
2023-05-30T08:39:59.688Z,48.65
2023-05-30T08:42:27.735Z,48.53
2023-05-30T08:44:55.721Z,48.21
2023-05-30T08:47:24.942Z,48.31
2023-05-30T08:49:54.421Z,47.91
2023-05-30T08:52:29.828Z,48.00
2023-05-30T08:55:08.787Z,47.65
2023-05-30T08:57:49.893Z,47.74
2023-05-30T09:00:19.466Z,48.10
2023-05-30T09:02:57.445Z,47.10
2023-05-30T09:05:27.033Z,46.74
2023-05-30T09:07:58.182Z,46.34
2023-05-30T09:10:29.789Z,46.18
2023-05-30T09:13:01.161Z,46.39
2023-05-30T09:15:29.372Z,45.59
2023-05-30T09:17:58.104Z,44.73
2023-05-30T09:20:31.750Z,44.67
2023-05-30T09:23:03.059Z,44.83
2023-05-30T09:25:49.800Z,44.79
2023-05-30T09:28:29.637Z,45.13
2023-05-30T09:31:02.985Z,43.91
2023-05-30T09:33:50.679Z,44.13
2023-05-30T09:36:21.741Z,44.77
2023-05-30T09:38:57.697Z,44.42
2023-05-30T09:41:27.826Z,43.73
2023-05-30T09:43:58.056Z,43.57
2023-05-30T09:46:31.678Z,43.48
2023-05-30T09:49:00.388Z,43.58
2023-05-30T09:51:31.010Z,43.76
2023-05-30T09:54:05.116Z,43.80
2023-05-30T09:56:44.055Z,42.77
2023-05-30T09:59:14.628Z,42.38
2023-05-30T10:01:44.984Z,42.67
2023-05-30T10:04:16.520Z,42.83
2023-05-30T10:06:47.840Z,43.26
2023-05-30T10:09:17.173Z,43.21
2023-05-30T10:11:46.106Z,43.14
2023-05-30T10:14:15.186Z,42.76
2023-05-30T10:16:50.449Z,43.00
2023-05-30T10:19:26.277Z,42.76
2023-05-30T10:22:00.639Z,42.65
2023-05-30T10:24:30.333Z,43.05
2023-05-30T10:27:05.678Z,42.72
2023-05-30T10:29:47.771Z,41.02
2023-05-30T10:32:25.599Z,40.34
2023-05-30T10:35:00.441Z,40.66
2023-05-30T10:37:29.033Z,40.59
2023-05-30T10:40:26.635Z,40.30
2023-05-30T10:43:06.798Z,40.26
2023-05-30T10:46:05.684Z,40.13
2023-05-30T10:48:48.825Z,40.04
2023-05-30T10:51:17.877Z,39.20
2023-05-30T10:53:49.418Z,38.69
2023-05-30T10:56:41.839Z,38.21
2023-05-30T10:59:19.745Z,37.26
2023-05-30T11:02:02.756Z,36.39
2023-05-30T11:04:46.380Z,36.10
2023-05-30T11:07:15.540Z,35.48
2023-05-30T11:10:02.546Z,36.02
2023-05-30T11:12:31.485Z,36.55
2023-05-30T11:15:01.627Z,36.16
2023-05-30T11:17:36.012Z,35.62
2023-05-30T11:20:18.641Z,35.53
2023-05-30T11:23:02.360Z,35.81
2023-05-30T11:25:33.869Z,34.89
2023-05-30T11:28:04.741Z,34.67
2023-05-30T11:30:39.440Z,35.18
2023-05-30T11:33:12.143Z,34.33
2023-05-30T11:35:43.750Z,34.68
2023-05-30T11:38:20.963Z,34.43
2023-05-30T11:40:52.561Z,35.24
2023-05-30T11:43:21.573Z,34.78
2023-05-30T11:45:57.991Z,34.59
2023-05-30T11:48:26.344Z,34.65
2023-05-30T11:50:56.891Z,34.59
2023-05-30T11:53:26.407Z,34.52
2023-05-30T11:55:54.839Z,34.65
2023-05-30T11:58:23.746Z,34.63
2023-05-30T12:00:53.402Z,34.37
2023-05-30T12:03:25.474Z,33.82
2023-05-30T12:05:53.836Z,33.96
2023-05-30T12:08:22.821Z,33.54
2023-05-30T12:10:51.863Z,34.01
2023-05-30T12:13:20.803Z,34.52
2023-05-30T12:15:51.132Z,32.56
2023-05-30T12:18:21.492Z,31.13
2023-05-30T12:20:52.697Z,31.38
2023-05-30T12:23:26.875Z,30.28
2023-05-30T12:25:56.848Z,30.41
2023-05-30T12:28:25.485Z,31.34
2023-05-30T12:30:55.159Z,31.74
2023-05-30T12:33:25.065Z,31.17
2023-05-30T12:35:57.650Z,30.75
2023-05-30T12:38:25.723Z,30.69
2023-05-30T12:40:54.021Z,31.59
2023-05-30T12:43:29.718Z,31.14
2023-05-30T12:46:11.475Z,30.69
2023-05-30T12:48:39.849Z,31.37
2023-05-30T12:51:08.678Z,31.86
2023-05-30T12:53:36.891Z,32.02
2023-05-30T12:56:05.394Z,31.61
2023-05-30T12:58:34.181Z,31.49
2023-05-30T13:01:02.830Z,31.89
2023-05-30T13:03:32.981Z,32.34
2023-05-30T13:06:01.371Z,32.57
2023-05-30T13:08:30.465Z,31.58
2023-05-30T13:10:59.844Z,31.37
2023-05-30T13:13:31.641Z,31.59
2023-05-30T13:15:59.699Z,31.61
2023-05-30T13:18:28.209Z,31.42
2023-05-30T13:20:57.572Z,31.50
2023-05-30T13:23:25.912Z,31.14
2023-05-30T13:25:54.547Z,30.55
2023-05-30T13:28:22.856Z,31.24
2023-05-30T13:30:51.809Z,31.85
2023-05-30T13:33:20.838Z,31.81
2023-05-30T13:35:48.878Z,32.14
2023-05-30T13:38:17.079Z,31.68
2023-05-30T13:40:44.937Z,31.67
2023-05-30T13:43:13.807Z,32.52
2023-05-30T13:45:42.969Z,31.25
2023-05-30T13:48:11.907Z,31.22
2023-05-30T13:50:39.883Z,31.88
2023-05-30T13:53:08.585Z,31.59
2023-05-30T13:55:37.301Z,31.99
2023-05-30T13:58:08.338Z,32.49
2023-05-30T14:00:36.915Z,32.17
2023-05-30T14:03:06.090Z,32.41
2023-05-30T14:05:36.461Z,32.98
2023-05-30T14:08:05.410Z,32.83
2023-05-30T14:10:33.340Z,33.39
2023-05-30T14:13:02.210Z,33.04
2023-05-30T14:15:32.369Z,32.91
2023-05-30T14:18:00.904Z,32.69
2023-05-30T14:20:28.935Z,33.25
2023-05-30T14:22:57.620Z,33.76
2023-05-30T14:25:25.556Z,33.60
2023-05-30T14:27:54.093Z,33.35
2023-05-30T14:30:22.335Z,32.96
2023-05-30T14:32:51.269Z,31.28
2023-05-30T14:35:20.131Z,29.27
2023-05-30T14:37:48.178Z,27.87
2023-05-30T14:40:16.874Z,26.82
2023-05-30T14:42:45.255Z,25.57
2023-05-30T14:45:13.252Z,24.55
2023-05-30T14:47:41.230Z,24.23
2023-05-30T14:50:11.207Z,23.74
2023-05-30T14:52:39.204Z,22.21
2023-05-30T14:55:08.409Z,21.13
2023-05-30T14:57:36.835Z,20.07
2023-05-30T15:00:06.794Z,18.74
2023-05-30T15:02:35.468Z,16.76
2023-05-30T15:05:04.301Z,15.74
2023-05-30T15:07:32.948Z,15.89
2023-05-30T15:10:01.638Z,16.55
2023-05-30T15:12:30.444Z,17.11
2023-05-30T15:14:59.003Z,16.81
2023-05-30T15:17:27.720Z,15.87
2023-05-30T15:19:56.417Z,16.82
2023-05-30T15:22:24.468Z,17.77
2023-05-30T15:24:52.446Z,17.31
2023-05-30T15:27:21.048Z,17.41
2023-05-30T15:29:48.990Z,17.06
2023-05-30T15:32:17.466Z,16.10
2023-05-30T15:34:46.288Z,15.75
2023-05-30T15:37:14.523Z,15.00
2023-05-30T15:39:42.723Z,15.08
2023-05-30T15:42:11.096Z,15.14
2023-05-30T15:44:39.049Z,13.91
2023-05-30T15:47:09.425Z,13.94
2023-05-30T15:49:37.754Z,13.84
2023-05-30T15:52:06.650Z,13.98
2023-05-30T15:54:34.642Z,13.30
2023-05-30T15:57:03.889Z,13.27
2023-05-30T15:59:32.311Z,12.94
2023-05-30T16:02:02.321Z,13.51
2023-05-30T16:04:30.801Z,14.07
2023-05-30T16:06:59.180Z,13.66
2023-05-30T16:09:27.453Z,13.12
2023-05-30T16:11:55.424Z,13.65
2023-05-30T16:14:26.180Z,12.99
2023-05-30T16:16:54.500Z,12.65
2023-05-30T16:19:23.123Z,12.88
2023-05-30T16:21:51.392Z,12.95
2023-05-30T16:24:20.597Z,13.15
2023-05-30T16:26:48.970Z,13.57
2023-05-30T16:29:17.139Z,13.07
2023-05-30T16:31:45.361Z,13.22
2023-05-30T16:34:13.399Z,13.03
2023-05-30T16:36:44.041Z,13.52
2023-05-30T16:39:13.856Z,13.64
2023-05-30T16:41:42.301Z,13.51
2023-05-30T16:44:11.528Z,13.37
2023-05-30T16:46:42.047Z,13.39
2023-05-30T16:49:12.161Z,13.50
2023-05-30T16:51:41.492Z,13.57
2023-05-30T16:54:11.685Z,13.86
2023-05-30T16:56:39.925Z,13.94
2023-05-30T16:59:08.495Z,14.03
2023-05-30T17:01:36.872Z,14.26
2023-05-30T17:04:05.203Z,14.50
2023-05-30T17:06:34.510Z,14.66
2023-05-30T17:09:02.387Z,14.92
2023-05-30T17:11:30.576Z,15.06
2023-05-30T17:13:58.982Z,15.01
2023-05-30T17:16:27.245Z,15.01
2023-05-30T17:18:55.939Z,14.93
2023-05-30T17:21:24.684Z,15.30
2023-05-30T17:23:55.008Z,15.48
2023-05-30T17:26:24.611Z,15.42
2023-05-30T17:28:53.325Z,15.62
2023-05-30T17:31:21.628Z,15.99
2023-05-30T17:33:52.026Z,16.00
2023-05-30T17:36:19.920Z,16.30
2023-05-30T17:38:48.566Z,16.33
2023-05-30T17:41:18.888Z,16.66
2023-05-30T17:43:47.180Z,16.74
2023-05-30T17:46:15.894Z,17.24
2023-05-30T17:48:43.967Z,17.29
2023-05-30T17:51:12.327Z,17.44
2023-05-30T17:53:51.181Z,17.68
2023-05-30T17:56:25.024Z,18.02
2023-05-30T17:58:53.363Z,18.33
2023-05-30T18:01:22.241Z,18.61
2023-05-30T18:03:50.619Z,18.68
2023-05-30T18:06:27.057Z,18.97
2023-05-30T18:08:56.969Z,19.06
2023-05-30T18:11:25.547Z,19.29
2023-05-30T18:13:54.266Z,19.65
2023-05-30T18:16:23.786Z,20.06
2023-05-30T18:18:53.637Z,20.37
2023-05-30T18:21:22.860Z,20.84
2023-05-30T18:23:51.744Z,21.30
2023-05-30T18:26:21.429Z,21.66
2023-05-30T18:28:50.557Z,22.43
2023-05-30T18:31:19.155Z,22.84
2023-05-30T18:33:47.195Z,23.82
2023-05-30T18:36:16.410Z,25.04
2023-05-30T18:38:47.675Z,26.38
2023-05-30T18:41:17.673Z,28.09
2023-05-30T18:43:48.498Z,29.21
2023-05-30T18:46:18.010Z,30.21
2023-05-30T18:48:48.491Z,31.39
2023-05-30T18:51:19.955Z,32.32
2023-05-30T18:53:48.242Z,33.90
2023-05-30T18:56:17.978Z,35.01
2023-05-30T18:58:46.254Z,36.25
2023-05-30T19:01:16.075Z,36.97
2023-05-30T19:03:45.328Z,37.94
2023-05-30T19:06:14.714Z,38.44
2023-05-30T19:08:47.775Z,39.86
2023-05-30T19:11:19.521Z,40.63
2023-05-30T19:13:48.724Z,40.73
2023-05-30T19:16:19.888Z,42.06
2023-05-30T19:18:49.471Z,43.45
2023-05-30T19:21:18.046Z,45.01
2023-05-30T19:23:46.438Z,45.21
2023-05-30T19:26:17.071Z,45.91
2023-05-30T19:28:47.604Z,46.16
2023-05-30T19:31:18.032Z,46.62
2023-05-30T19:33:48.772Z,47.24
2023-05-30T19:36:18.706Z,48.54
2023-05-30T19:38:47.880Z,49.55
2023-05-30T19:41:18.564Z,50.11
2023-05-30T19:43:48.710Z,50.81
2023-05-30T19:46:17.408Z,51.77
2023-05-30T19:48:45.818Z,52.15
2023-05-30T19:51:16.628Z,52.67
2023-05-30T19:53:44.633Z,52.81
2023-05-30T19:56:14.500Z,53.16
2023-05-30T19:58:43.204Z,53.78
2023-05-30T20:01:11.248Z,54.40
2023-05-30T20:03:43.838Z,54.85
2023-05-30T20:06:16.040Z,55.76
2023-05-30T20:08:43.995Z,57.23
2023-05-30T20:11:12.994Z,57.88
2023-05-30T20:13:41.748Z,58.39
2023-05-30T20:16:13.683Z,59.21
2023-05-30T20:18:49.931Z,59.68
2023-05-30T20:21:20.062Z,60.21
2023-05-30T20:23:48.503Z,60.52
2023-05-30T20:26:16.542Z,61.80
2023-05-30T20:28:44.852Z,62.25
2023-05-30T20:31:13.643Z,62.79
2023-05-30T20:33:41.921Z,63.08
2023-05-30T20:36:12.077Z,63.12
2023-05-30T20:38:40.216Z,63.73
2023-05-30T20:41:08.394Z,64.63
2023-05-30T20:43:37.223Z,66.22
2023-05-30T20:46:05.458Z,65.73
2023-05-30T20:48:33.734Z,65.80
2023-05-30T20:51:02.239Z,66.50
2023-05-30T20:53:30.625Z,66.39
2023-05-30T20:55:58.867Z,67.14
2023-05-30T20:58:27.753Z,67.02
2023-05-30T21:00:56.024Z,67.39
2023-05-30T21:03:25.392Z,67.78
2023-05-30T21:05:53.529Z,68.67
2023-05-30T21:08:22.190Z,67.95
2023-05-30T21:10:50.033Z,68.21
2023-05-30T21:13:18.845Z,67.92
2023-05-30T21:15:47.230Z,68.40
2023-05-30T21:18:15.140Z,68.29
2023-05-30T21:20:44.195Z,69.12
2023-05-30T21:23:12.464Z,69.74
2023-05-30T21:25:41.566Z,69.65
2023-05-30T21:28:09.462Z,70.14
2023-05-30T21:30:38.101Z,69.71
2023-05-30T21:33:06.621Z,70.14
2023-05-30T21:35:34.914Z,70.26
2023-05-30T21:38:03.154Z,69.29
2023-05-30T21:40:31.024Z,70.11
2023-05-30T21:42:59.603Z,70.61
2023-05-30T21:45:28.154Z,70.14
2023-05-30T21:47:57.149Z,70.79
2023-05-30T21:50:25.035Z,70.82
2023-05-30T21:52:52.949Z,70.84
2023-05-30T21:55:21.602Z,70.85
2023-05-30T21:57:50.286Z,71.98
2023-05-30T22:00:19.466Z,71.95
2023-05-30T22:02:48.121Z,71.84
2023-05-30T22:05:17.113Z,71.45
2023-05-30T22:07:45.569Z,71.15
2023-05-30T22:10:13.905Z,71.47
2023-05-30T22:12:41.759Z,72.67
2023-05-30T22:15:10.693Z,72.49
2023-05-30T22:17:40.318Z,72.28
2023-05-30T22:20:09.700Z,72.38
2023-05-30T22:22:38.393Z,72.44
2023-05-30T22:25:07.381Z,72.06
2023-05-30T22:27:35.561Z,72.81
2023-05-30T22:30:04.260Z,72.96
2023-05-30T22:32:33.894Z,73.02
2023-05-30T22:35:03.000Z,73.49
2023-05-30T22:37:31.038Z,72.84
2023-05-30T22:39:59.562Z,72.86
2023-05-30T22:42:27.779Z,72.39
2023-05-30T22:44:56.158Z,73.33
2023-05-30T22:47:24.079Z,71.95
2023-05-30T22:49:52.211Z,73.11
2023-05-30T22:52:20.480Z,72.95
2023-05-30T22:54:48.755Z,73.17
2023-05-30T22:57:17.033Z,73.31
2023-05-30T22:59:44.970Z,73.48
2023-05-30T23:02:13.646Z,73.19
2023-05-30T23:04:42.268Z,73.70
2023-05-30T23:07:11.085Z,73.27
2023-05-30T23:09:39.252Z,73.09
2023-05-30T23:12:08.576Z,73.66
2023-05-30T23:14:37.057Z,73.87
2023-05-30T23:17:06.181Z,75.03
2023-05-30T23:19:34.359Z,74.06
2023-05-30T23:22:02.568Z,75.19
2023-05-30T23:24:30.406Z,75.56
2023-05-30T23:26:58.612Z,74.67
2023-05-30T23:29:27.009Z,76.09
2023-05-30T23:31:55.679Z,76.92
2023-05-30T23:34:23.514Z,76.99
2023-05-30T23:36:51.631Z,75.81
2023-05-30T23:39:19.606Z,76.43
2023-05-30T23:41:47.814Z,76.22
2023-05-30T23:44:16.544Z,75.86
2023-05-30T23:46:44.814Z,77.04
2023-05-30T23:49:16.808Z,77.45
2023-05-30T23:51:48.270Z,76.94
2023-05-30T23:54:16.744Z,77.42
2023-05-30T23:56:45.000Z,77.42
2023-05-30T23:59:13.199Z,78.27
